Time;durP1;ratioP1;P1;durP2;ratioP2;P2;SDS_P1;SDS_P2;PMS_P1;PMS_P2;Temp;Humidity;BMP_temperature;BMP_pressure;BME280_temperature;BME280_humidity;BME280_pressure;Samples;Min_cycle;Max_cycle;Signal;HPM_P1;HPM_P2
2022/03/18 00:00:33;;;;;;;6.90;3.05;;;;;;;10.00;47.76;103807.09;5101161;28;20044;-58
2022/03/18 00:03:03;;;;;;;8.05;3.45;;;;;;;9.99;48.19;103810.78;5103867;28;20062;-57
2022/03/18 00:05:31;;;;;;;9.05;3.55;;;;;;;9.97;48.23;103812.75;5103524;28;20048;-58
2022/03/18 00:07:59;;;;;;;6.63;3.30;;;;;;;9.93;48.38;103806.81;5098156;28;20089;-57
2022/03/18 00:10:29;;;;;;;9.30;3.97;;;;;;;9.92;47.64;103801.59;5103289;28;20382;-57
2022/03/18 00:12:57;;;;;;;9.60;3.72;;;;;;;9.92;48.28;103812.34;5103197;28;20048;-57
2022/03/18 00:15:27;;;;;;;7.95;3.42;;;;;;;9.88;47.88;103803.72;5099776;28;20062;-58
2022/03/18 00:17:55;;;;;;;6.10;2.92;;;;;;;9.89;47.72;103810.78;5094407;28;20101;-57
2022/03/18 00:20:24;;;;;;;11.23;3.60;;;;;;;9.88;48.17;103814.47;5103050;28;20083;-57
2022/03/18 00:22:52;;;;;;;8.85;3.30;;;;;;;9.87;48.24;103822.69;5094982;28;20112;-57
2022/03/18 00:25:21;;;;;;;9.77;3.50;;;;;;;9.86;48.32;103823.66;5103334;28;20082;-57
2022/03/18 00:27:49;;;;;;;8.65;3.13;;;;;;;9.86;47.90;103818.28;5094106;28;20051;-57
2022/03/18 00:30:19;;;;;;;7.18;3.50;;;;;;;9.85;47.93;103827.34;5101889;28;20083;-57
2022/03/18 00:32:51;;;;;;;7.57;3.00;;;;;;;9.84;48.36;103831.03;5103312;28;20080;-57
2022/03/18 00:35:37;;;;;;;13.27;3.58;;;;;;;9.82;47.86;103825.78;5100388;28;20143;-57
2022/03/18 00:38:05;;;;;;;7.38;3.00;;;;;;;9.79;48.25;103826.94;5099857;28;20059;-57
2022/03/18 00:40:33;;;;;;;6.68;3.10;;;;;;;9.78;47.95;103830.59;5103111;28;20063;-57
2022/03/18 00:43:03;;;;;;;7.13;2.88;;;;;;;9.78;47.70;103829.75;5092645;28;20052;-58
2022/03/18 00:45:32;;;;;;;6.85;3.67;;;;;;;9.76;48.34;103837.97;5098059;28;20138;-58
2022/03/18 00:53:32;;;;;;;9.65;3.22;;;;;;;9.72;48.05;103831.19;5097420;28;20079;-57
2022/03/18 00:55:59;;;;;;;7.40;3.40;;;;;;;9.70;48.00;103838.53;5104745;28;20485;-56
2022/03/18 00:58:27;;;;;;;9.30;3.88;;;;;;;9.68;48.37;103843.19;5105486;28;20075;-57
2022/03/18 01:00:56;;;;;;;7.97;3.85;;;;;;;9.65;48.03;103843.47;5105361;28;20099;-58
2022/03/18 01:03:23;;;;;;;5.55;3.00;;;;;;;9.65;48.59;103848.00;5098034;28;20055;-58
2022/03/18 01:05:53;;;;;;;7.43;3.70;;;;;;;9.63;47.70;103847.31;5102249;28;20075;-58
2022/03/18 01:08:21;;;;;;;6.05;3.08;;;;;;;9.61;47.76;103855.50;5104236;28;20461;-56
2022/03/18 01:10:49;;;;;;;10.10;3.50;;;;;;;9.60;47.82;103852.97;5106326;28;20104;-57
2022/03/18 01:13:17;;;;;;;8.10;3.35;;;;;;;9.58;48.34;103853.09;5106416;28;20079;-57
2022/03/18 01:15:45;;;;;;;7.57;3.45;;;;;;;9.56;47.77;103857.75;5102794;28;20071;-59
2022/03/18 01:18:12;;;;;;;10.48;3.60;;;;;;;9.55;48.10;103874.00;5103522;28;20055;-58
2022/03/18 01:20:40;;;;;;;9.10;3.38;;;;;;;9.54;48.11;103878.53;5104066;28;20051;-57
2022/03/18 01:23:11;;;;;;;7.53;3.75;;;;;;;9.53;48.18;103866.09;5103324;28;20048;-57
2022/03/18 01:25:39;;;;;;;9.00;3.55;;;;;;;9.51;48.30;103864.53;5102402;28;20449;-56
2022/03/18 01:28:07;;;;;;;9.98;3.55;;;;;;;9.51;48.17;103864.53;5105484;28;20079;-57
2022/03/18 01:30:35;;;;;;;8.07;3.47;;;;;;;9.48;48.87;103865.66;5103161;28;20094;-57
2022/03/18 01:33:02;;;;;;;8.15;3.38;;;;;;;9.46;48.16;103863.13;5103776;28;20108;-56
2022/03/18 01:35:30;;;;;;;6.55;3.25;;;;;;;9.45;47.75;103861.44;5105703;28;20071;-57
2022/03/18 01:37:58;;;;;;;8.88;4.28;;;;;;;9.44;47.80;103857.03;5103312;28;20055;-57
2022/03/18 01:40:27;;;;;;;7.47;3.40;;;;;;;9.42;48.16;103860.88;5105739;28;20052;-57
2022/03/18 01:42:55;;;;;;;8.52;3.67;;;;;;;9.39;47.79;103859.31;5105547;28;20047;-57
2022/03/18 01:45:22;;;;;;;9.52;3.65;;;;;;;9.38;47.80;103864.81;5104624;28;20087;-57
2022/03/18 01:47:50;;;;;;;10.13;3.45;;;;;;;9.36;47.86;103869.47;5101718;28;20071;-57
2022/03/18 01:50:18;;;;;;;6.93;3.78;;;;;;;9.37;48.29;103874.69;5105951;28;20056;-56
2022/03/18 01:52:46;;;;;;;9.48;3.47;;;;;;;9.34;47.93;103872.31;5104549;28;20063;-58
2022/03/18 01:55:17;;;;;;;5.95;3.03;;;;;;;9.33;48.02;103878.66;5102546;28;20101;-57
2022/03/18 01:57:46;;;;;;;9.35;3.53;;;;;;;9.29;48.86;103873.69;5098858;28;20087;-57
2022/03/18 02:00:15;;;;;;;7.85;3.65;;;;;;;9.28;48.59;103872.84;5104375;28;20055;-58
2022/03/18 02:02:43;;;;;;;6.95;3.63;;;;;;;9.29;48.08;103873.69;5102198;28;20076;-57
2022/03/18 02:05:11;;;;;;;8.85;3.97;;;;;;;9.27;48.02;103875.69;5099816;28;20041;-57
2022/03/18 02:07:39;;;;;;;6.80;2.83;;;;;;;9.27;48.55;103873.84;5097517;28;20075;-56
2022/03/18 02:10:09;;;;;;;12.98;3.65;;;;;;;9.27;48.34;103875.69;5105143;28;20071;-56
2022/03/18 02:12:37;;;;;;;9.45;3.38;;;;;;;9.25;47.71;103874.97;5105169;28;20147;-57
2022/03/18 02:15:07;;;;;;;7.65;3.42;;;;;;;9.24;48.23;103866.06;5104305;28;20055;-57
2022/03/18 02:17:34;;;;;;;10.52;3.20;;;;;;;9.21;48.03;103869.03;5105390;28;20126;-57
2022/03/18 02:20:02;;;;;;;7.18;3.78;;;;;;;9.22;48.37;103869.88;5104935;28;20082;-56
2022/03/18 02:22:36;;;;;;;8.32;3.50;;;;;;;9.20;47.80;103880.75;5101036;28;20079;-56
2022/03/18 02:25:05;;;;;;;9.65;3.75;;;;;;;9.19;48.18;103873.69;5104326;28;20076;-57
2022/03/18 02:27:32;;;;;;;6.82;3.60;;;;;;;9.17;48.43;103877.50;5105532;28;20075;-57
2022/03/18 02:30:01;;;;;;;6.20;3.70;;;;;;;9.15;47.81;103885.69;5098135;28;20072;-58
2022/03/18 02:32:30;;;;;;;11.77;3.75;;;;;;;9.14;49.06;103884.00;5105169;28;20454;-57
2022/03/18 02:34:57;;;;;;;11.63;3.95;;;;;;;9.12;48.10;103891.31;5104803;28;20040;-56
2022/03/18 02:37:25;;;;;;;11.85;4.03;;;;;;;9.11;48.17;103893.16;5095261;28;20185;-56
2022/03/18 02:39:54;;;;;;;7.78;3.83;;;;;;;9.10;48.27;103890.63;5103907;28;20119;-57
2022/03/18 02:42:22;;;;;;;10.80;3.83;;;;;;;9.08;48.45;103895.28;5105240;28;20083;-58
2022/03/18 02:44:50;;;;;;;8.20;4.25;;;;;;;9.06;48.54;103886.50;5103205;28;20048;-58
2022/03/18 02:47:17;;;;;;;13.25;4.70;;;;;;;9.06;48.43;103879.31;5105244;28;20087;-58
2022/03/18 02:49:45;;;;;;;9.27;3.30;;;;;;;9.03;48.67;103890.31;5102580;28;20066;-57
2022/03/18 02:52:14;;;;;;;7.18;3.13;;;;;;;9.02;48.36;103902.03;5102337;28;20068;-57
2022/03/18 02:54:42;;;;;;;9.25;3.75;;;;;;;9.00;48.66;103895.94;5103889;28;20062;-57
2022/03/18 02:57:11;;;;;;;11.32;3.72;;;;;;;8.98;47.98;103895.25;5102602;28;20040;-57
2022/03/18 02:59:39;;;;;;;8.20;3.72;;;;;;;8.97;49.10;103890.88;5104279;28;20492;-57
2022/03/18 03:02:07;;;;;;;6.93;3.30;;;;;;;8.95;48.02;103897.34;5103468;28;20076;-57
2022/03/18 03:07:58;;;;;;;9.60;4.05;;;;;;;8.93;48.57;103896.63;5102061;28;20071;-57
2022/03/18 03:10:09;;;;;;;5.03;3.15;;;;;;;8.91;48.57;103904.81;5099646;28;20122;-57
2022/03/18 03:12:38;;;;;;;7.93;3.58;;;;;;;8.91;48.52;103906.66;5104072;28;20084;-57
2022/03/18 03:15:07;;;;;;;7.13;3.30;;;;;;;8.90;48.86;103918.38;5099126;28;20076;-57
2022/03/18 03:17:35;;;;;;;7.97;3.72;;;;;;;8.88;47.98;103923.00;5104090;28;20075;-57
2022/03/18 03:20:02;;;;;;;6.75;3.58;;;;;;;8.86;48.72;103922.31;5103507;28;20075;-57
2022/03/18 03:22:30;;;;;;;9.32;4.63;;;;;;;8.81;48.08;103923.56;5103243;28;20075;-56
2022/03/18 03:24:58;;;;;;;11.82;4.10;;;;;;;8.82;48.47;103925.25;5091582;28;20051;-57
2022/03/18 03:27:29;;;;;;;8.27;3.65;;;;;;;8.80;48.50;103923.69;5104407;28;20087;-58
2022/03/18 03:29:59;;;;;;;8.00;3.63;;;;;;;8.79;48.45;103927.34;5103318;28;20075;-57
2022/03/18 03:32:27;;;;;;;8.43;3.45;;;;;;;8.77;48.88;103924.81;5104279;28;20523;-58
2022/03/18 03:34:57;;;;;;;8.30;4.05;;;;;;;8.77;48.39;103921.28;5100931;28;20056;-57
2022/03/18 03:37:25;;;;;;;10.52;3.78;;;;;;;8.75;48.73;103937.50;5102894;28;20052;-57
2022/03/18 03:39:53;;;;;;;7.97;3.72;;;;;;;8.75;48.37;103942.88;5102923;28;20079;-58
2022/03/18 03:42:21;;;;;;;6.60;3.85;;;;;;;8.74;48.54;103941.16;5096704;28;20063;-57
2022/03/18 03:44:49;;;;;;;10.55;3.45;;;;;;;8.73;48.16;103934.09;5099430;28;20056;-57
2022/03/18 03:47:18;;;;;;;9.90;3.45;;;;;;;8.74;48.90;103940.31;5097945;28;20079;-57
2022/03/18 03:49:46;;;;;;;6.57;3.47;;;;;;;8.73;48.35;103934.09;5100667;28;20044;-57
2022/03/18 03:52:14;;;;;;;11.50;4.07;;;;;;;8.72;48.33;103943.13;5102210;28;20047;-56
2022/03/18 03:54:42;;;;;;;8.25;4.15;;;;;;;8.72;48.14;103951.19;5102046;28;20484;-56
2022/03/18 03:57:10;;;;;;;8.43;3.80;;;;;;;8.70;48.55;103949.59;5103937;28;20076;-57
2022/03/18 03:59:37;;;;;;;12.02;4.03;;;;;;;8.70;48.77;103963.00;5103207;28;20048;-57
2022/03/18 04:02:06;;;;;;;8.73;3.45;;;;;;;8.67;48.27;103950.72;5099125;28;20091;-57
2022/03/18 04:04:35;;;;;;;7.68;3.80;;;;;;;8.67;48.71;103952.56;5103896;28;20066;-57
2022/03/18 04:07:03;;;;;;;9.10;3.90;;;;;;;8.65;48.79;103949.19;5100371;28;20441;-57
2022/03/18 04:09:30;;;;;;;10.48;3.95;;;;;;;8.64;48.58;103959.06;5102202;28;20044;-56
2022/03/18 04:11:58;;;;;;;7.78;3.67;;;;;;;8.63;48.44;103964.56;5103119;28;20151;-57
2022/03/18 04:14:26;;;;;;;7.40;3.40;;;;;;;8.59;48.70;103960.44;5103015;28;20048;-58
2022/03/18 04:16:53;;;;;;;9.13;3.85;;;;;;;8.60;48.79;103975.56;5099444;28;20109;-57
2022/03/18 04:19:21;;;;;;;9.48;4.18;;;;;;;8.57;48.71;103981.19;5103359;28;20043;-56
2022/03/18 04:21:50;;;;;;;12.50;4.22;;;;;;;8.56;48.51;103976.78;5098286;28;20051;-57
2022/03/18 04:24:18;;;;;;;9.90;4.82;;;;;;;8.54;48.35;103976.06;5101183;28;20098;-57
2022/03/18 04:26:46;;;;;;;8.80;4.00;;;;;;;8.54;48.35;103984.13;5103282;28;20154;-57
2022/03/18 04:29:13;;;;;;;8.50;3.92;;;;;;;8.52;48.93;103986.09;5105346;28;20044;-57
2022/03/18 04:31:42;;;;;;;9.93;4.43;;;;;;;8.50;48.69;103990.72;5097073;28;20071;-57
2022/03/18 04:34:11;;;;;;;9.57;4.18;;;;;;;8.48;49.06;104001.56;5101933;28;20044;-57
2022/03/18 04:36:39;;;;;;;9.05;4.43;;;;;;;8.47;48.53;104003.41;5106894;28;20067;-57
2022/03/18 04:39:08;;;;;;;7.97;4.40;;;;;;;8.45;49.14;104005.38;5103447;28;20079;-57
2022/03/18 04:41:36;;;;;;;8.23;4.10;;;;;;;8.45;49.19;104002.69;5106578;28;20121;-57
2022/03/18 04:44:04;;;;;;;10.70;4.75;;;;;;;8.43;49.18;104006.47;5097840;28;20088;-57
2022/03/18 04:46:32;;;;;;;13.40;4.57;;;;;;;8.43;48.28;104010.00;5106340;28;20044;-57
2022/03/18 04:49:00;;;;;;;9.20;4.18;;;;;;;8.37;48.92;104005.16;5102109;28;20101;-58
2022/03/18 04:51:30;;;;;;;10.75;4.35;;;;;;;8.40;48.91;104014.78;5103288;28;20068;-58
2022/03/18 04:53:58;;;;;;;12.40;4.43;;;;;;;8.39;48.90;104015.75;5103846;28;20051;-57
2022/03/18 04:59:12;;;;;;;8.77;4.50;;;;;;;8.37;48.29;104017.72;5093588;28;20133;-57
2022/03/18 05:01:40;;;;;;;10.85;4.85;;;;;;;8.36;49.09;104018.69;5099045;28;20056;-57
2022/03/18 05:04:08;;;;;;;10.38;3.90;;;;;;;8.34;48.40;104024.19;5105918;28;20105;-57
2022/03/18 05:06:35;;;;;;;10.38;4.80;;;;;;;8.33;48.94;104025.16;5105212;28;20083;-58
2022/03/18 05:09:03;;;;;;;10.10;4.57;;;;;;;8.32;48.32;104026.09;5102288;28;20139;-57
2022/03/18 05:11:32;;;;;;;9.15;4.40;;;;;;;8.32;49.24;104027.94;5098821;28;20049;-57
2022/03/18 05:14:00;;;;;;;11.82;6.13;;;;;;;8.30;48.51;104029.91;5101645;28;20067;-57
2022/03/18 05:16:27;;;;;;;8.80;4.65;;;;;;;8.29;48.64;104041.59;5106319;28;20052;-57
2022/03/18 05:18:55;;;;;;;10.48;5.07;;;;;;;8.26;48.40;104045.38;5097316;28;20163;-57
2022/03/18 05:21:23;;;;;;;10.43;4.55;;;;;;;8.25;48.89;104049.03;5105973;28;20044;-56
2022/03/18 05:23:52;;;;;;;11.55;4.97;;;;;;;8.25;49.15;104058.91;5102984;28;20075;-57
2022/03/18 05:26:20;;;;;;;9.30;4.78;;;;;;;8.24;48.53;104055.38;5105555;28;20048;-56
2022/03/18 05:28:49;;;;;;;11.10;5.38;;;;;;;8.24;49.09;104062.56;5104839;28;20091;-58
2022/03/18 05:31:17;;;;;;;7.20;4.43;;;;;;;8.22;49.17;104062.69;5093180;28;20082;-57
2022/03/18 05:33:45;;;;;;;10.45;5.55;;;;;;;8.20;48.88;104056.59;5097729;28;20143;-57
2022/03/18 05:36:12;;;;;;;9.85;4.90;;;;;;;8.20;48.92;104063.78;5104470;28;20074;-57
2022/03/18 05:38:40;;;;;;;11.35;5.45;;;;;;;8.19;48.92;104054.91;5100971;28;20044;-57
2022/03/18 05:41:09;;;;;;;10.77;4.85;;;;;;;8.17;49.19;104064.91;5098974;28;20067;-57
2022/03/18 05:43:37;;;;;;;8.48;4.50;;;;;;;8.18;49.07;104068.44;5101571;28;20052;-57
2022/03/18 05:46:07;;;;;;;10.80;5.30;;;;;;;8.16;48.85;104068.56;5102407;28;20101;-57
2022/03/18 05:48:34;;;;;;;10.82;4.63;;;;;;;8.14;49.04;104076.72;5108434;28;20036;-57
2022/03/18 05:51:02;;;;;;;11.38;4.82;;;;;;;8.13;49.58;104071.50;5103868;28;20507;-57
2022/03/18 05:53:30;;;;;;;12.93;5.00;;;;;;;8.11;49.01;104071.63;5095073;28;20040;-56
2022/03/18 05:58:44;;;;;;;10.85;4.85;;;;;;;8.10;48.90;104069.91;5096144;28;20060;-57
2022/03/18 06:01:13;;;;;;;8.43;4.45;;;;;;;8.08;48.84;104069.19;5101467;28;20052;-56
2022/03/18 06:03:41;;;;;;;8.55;4.28;;;;;;;8.12;49.12;104067.09;5104546;28;20070;-56
2022/03/18 06:06:09;;;;;;;9.90;4.70;;;;;;;8.14;49.40;104060.66;5103269;28;20064;-56
2022/03/18 06:14:07;;;;;;;9.70;4.13;;;;;;;8.13;49.14;104077.69;5103823;28;20519;-57
2022/03/18 06:16:37;;;;;;;7.90;4.60;;;;;;;8.19;49.43;104089.75;5102198;28;20071;-57
2022/03/18 06:19:05;;;;;;;10.32;4.10;;;;;;;8.26;48.50;104101.66;5098141;28;20043;-57
2022/03/18 06:21:33;;;;;;;15.38;5.68;;;;;;;8.38;48.62;104100.66;5102773;28;20091;-57
2022/03/18 06:24:00;;;;;;;9.88;4.45;;;;;;;8.50;48.03;104096.13;5099599;28;20044;-58
2022/03/18 06:26:30;;;;;;;7.68;4.18;;;;;;;8.63;47.89;104098.63;5098597;28;20071;-57
2022/03/18 06:28:58;;;;;;;8.93;5.07;;;;;;;8.77;47.21;104096.44;5099229;28;20073;-58
2022/03/18 06:31:26;;;;;;;10.45;4.43;;;;;;;8.90;47.13;104112.34;4744496;28;9999679;-56
2022/03/18 06:33:55;;;;;;;9.52;4.50;;;;;;;9.04;47.08;104103.94;5094508;28;20462;-59
2022/03/18 06:36:23;;;;;;;8.50;5.22;;;;;;;9.18;47.15;104115.34;5099406;28;20056;-58
2022/03/18 06:38:50;;;;;;;9.82;4.57;;;;;;;9.20;46.74;104116.91;5097520;28;20114;-57
2022/03/18 06:41:19;;;;;;;10.63;4.78;;;;;;;9.15;46.30;104111.09;5101301;28;20514;-58
2022/03/18 06:43:47;;;;;;;12.25;5.00;;;;;;;9.05;46.31;104111.03;5101238;28;20084;-59
2022/03/18 06:46:15;;;;;;;9.30;5.10;;;;;;;8.91;47.48;104113.19;5097148;28;20080;-59
2022/03/18 06:48:43;;;;;;;8.73;5.22;;;;;;;8.81;47.64;104121.16;5101048;28;20358;-59
2022/03/18 06:51:13;;;;;;;12.30;4.72;;;;;;;8.71;47.74;104114.88;4739042;28;10000467;-58
2022/03/18 06:53:41;;;;;;;9.23;4.53;;;;;;;8.61;47.83;104125.56;5095375;28;20075;-57
2022/03/18 06:56:12;;;;;;;10.05;5.63;;;;;;;8.60;48.79;104134.56;5094002;28;20036;-58
2022/03/18 06:58:40;;;;;;;8.90;4.43;;;;;;;8.59;48.65;104132.03;5099965;28;21353;-57
2022/03/18 07:01:08;;;;;;;6.15;3.92;;;;;;;8.61;48.45;104143.47;5099735;28;20116;-58
2022/03/18 07:03:36;;;;;;;10.15;5.03;;;;;;;8.59;48.37;104142.75;5094009;28;20044;-58
2022/03/18 07:06:04;;;;;;;9.63;4.82;;;;;;;8.59;48.62;104142.75;5094119;28;20109;-58
2022/03/18 07:08:33;;;;;;;10.27;4.65;;;;;;;8.60;48.75;104137.25;5098345;28;20098;-57
2022/03/18 07:11:00;;;;;;;9.35;4.60;;;;;;;8.59;48.92;104134.69;5099203;28;20055;-58
2022/03/18 07:13:28;;;;;;;11.85;5.50;;;;;;;8.56;49.40;104138.50;5099423;28;20059;-57
2022/03/18 07:17:54;;;;;;;9.05;4.75;;;;;;;8.55;49.21;104133.25;5094389;28;20434;-57
2022/03/18 07:18:43;;;;;;;14.85;5.03;;;;;;;8.52;49.15;104134.38;5102570;28;20059;-58
2022/03/18 07:21:14;;;;;;;11.00;5.20;;;;;;;8.51;50.05;104150.56;5103238;28;20056;-58
2022/03/18 07:23:43;;;;;;;8.27;4.45;;;;;;;8.50;49.86;104152.41;5099522;28;20075;-57
2022/03/18 07:26:10;;;;;;;10.60;4.57;;;;;;;8.46;50.23;104145.59;5103520;28;20106;-58
2022/03/18 07:28:38;;;;;;;7.90;4.40;;;;;;;8.42;50.03;104139.63;5101278;28;20058;-58
2022/03/18 07:31:06;;;;;;;11.60;6.03;;;;;;;8.43;49.84;104154.75;5103338;28;20174;-58
2022/03/18 07:33:34;;;;;;;11.25;5.22;;;;;;;8.43;49.51;104165.47;5100357;28;20071;-58
2022/03/18 07:36:03;;;;;;;9.90;5.30;;;;;;;8.41;50.08;104167.41;5102951;28;20520;-58
2022/03/18 07:38:30;;;;;;;12.43;5.50;;;;;;;8.36;49.87;104150.88;5091026;28;20065;-56
2022/03/18 07:41:00;;;;;;;10.50;4.35;;;;;;;8.39;50.45;104157.81;5103805;28;20048;-57
2022/03/18 07:43:27;;;;;;;10.90;4.40;;;;;;;8.39;50.76;104163.16;5103613;28;20233;-59
2022/03/18 07:45:55;;;;;;;12.02;5.00;;;;;;;8.37;50.66;104163.28;5102329;28;20087;-59
2022/03/18 07:48:26;;;;;;;7.72;4.28;;;;;;;8.37;50.74;104167.78;5090311;28;20049;-57
2022/03/18 07:50:54;;;;;;;10.45;5.75;;;;;;;8.35;50.40;104170.59;5103192;28;20169;-58
2022/03/18 07:53:22;;;;;;;11.45;4.45;;;;;;;8.36;50.84;104188.38;5101151;28;20062;-58
2022/03/18 07:55:50;;;;;;;11.45;5.28;;;;;;;8.36;51.13;104193.75;5102414;28;20461;-58
2022/03/18 07:58:19;;;;;;;10.35;4.97;;;;;;;8.37;50.86;104208.84;5102173;28;20120;-58
2022/03/18 08:00:47;;;;;;;11.38;4.25;;;;;;;8.36;51.04;104211.66;5102925;28;20048;-58
2022/03/18 08:03:15;;;;;;;7.75;4.10;;;;;;;8.37;51.11;104205.31;5093866;28;20113;-57
2022/03/18 08:05:43;;;;;;;8.20;4.13;;;;;;;8.38;51.58;104209.69;5101529;28;20067;-57
2022/03/18 08:08:11;;;;;;;11.73;4.80;;;;;;;8.38;50.99;104212.38;5099892;28;20079;-58
2022/03/18 08:10:39;;;;;;;10.93;4.43;;;;;;;8.40;51.66;104210.44;5101674;28;20055;-57
2022/03/18 08:13:07;;;;;;;9.77;4.63;;;;;;;8.38;51.90;104210.56;5103154;28;20549;-59
2022/03/18 08:15:36;;;;;;;10.45;4.78;;;;;;;8.38;51.63;104215.06;5097113;28;20146;-58
2022/03/18 08:18:04;;;;;;;9.10;3.97;;;;;;;8.40;51.24;104208.59;5095683;28;20079;-57
2022/03/18 08:20:39;;;;;;;8.55;3.63;;;;;;;8.41;51.01;104217.50;5103522;28;20076;-58
2022/03/18 08:23:07;;;;;;;11.38;4.53;;;;;;;8.42;51.05;104221.88;5100840;28;20098;-58
2022/03/18 08:25:35;;;;;;;11.95;4.88;;;;;;;8.42;51.46;104220.03;5099693;28;20052;-57
2022/03/18 08:28:05;;;;;;;9.98;4.20;;;;;;;8.43;51.15;104231.63;5102304;28;20051;-59
2022/03/18 08:30:33;;;;;;;8.30;4.10;;;;;;;8.39;51.86;104222.97;5098913;28;20052;-58
2022/03/18 08:33:02;;;;;;;8.30;3.65;;;;;;;8.44;51.37;104220.78;5096118;28;20072;-57
2022/03/18 08:35:30;;;;;;;11.05;4.03;;;;;;;8.45;51.68;104230.50;5101562;28;20079;-58
2022/03/18 08:37:58;;;;;;;11.63;3.92;;;;;;;8.45;51.64;104235.88;5098995;28;20080;-57
2022/03/18 08:40:27;;;;;;;7.72;4.28;;;;;;;8.47;51.73;104236.59;5103348;28;20133;-59
2022/03/18 08:42:55;;;;;;;12.48;3.95;;;;;;;8.48;52.15;104232.09;5098231;28;20040;-59
2022/03/18 08:45:24;;;;;;;9.70;3.88;;;;;;;8.51;52.00;104236.34;5093715;28;20060;-57
2022/03/18 08:47:53;;;;;;;11.43;3.90;;;;;;;8.52;51.71;104228.19;5099480;28;20082;-58
2022/03/18 08:50:23;;;;;;;12.43;3.75;;;;;;;8.49;52.31;104244.53;5090901;28;20055;-59
2022/03/18 08:52:55;;;;;;;9.65;3.30;;;;;;;8.44;53.04;104238.69;5089521;28;20083;-58
2022/03/18 08:55:23;;;;;;;10.95;4.43;;;;;;;8.50;52.69;104240.00;5098043;28;20082;-58
2022/03/18 08:57:51;;;;;;;12.10;4.28;;;;;;;8.53;51.84;104253.16;5100223;28;20044;-58
2022/03/18 09:00:19;;;;;;;10.63;3.92;;;;;;;8.58;51.76;104254.50;5099759;28;20044;-59
2022/03/18 09:02:48;;;;;;;8.25;3.22;;;;;;;8.50;52.20;104245.38;5102004;28;20044;-58
2022/03/18 09:05:16;;;;;;;9.27;3.35;;;;;;;8.54;52.26;104270.94;5102277;28;20070;-57
2022/03/18 09:07:48;;;;;;;9.02;3.30;;;;;;;8.53;52.51;104267.41;5100634;28;20044;-57
2022/03/18 09:10:16;;;;;;;8.85;3.45;;;;;;;8.52;52.45;104272.91;5100346;28;20040;-58
2022/03/18 09:12:45;;;;;;;10.88;3.40;;;;;;;8.56;52.56;104274.38;5099358;28;20195;-57
2022/03/18 09:15:13;;;;;;;6.18;2.80;;;;;;;8.60;52.37;104275.81;5099909;28;20052;-58
2022/03/18 09:17:41;;;;;;;18.17;3.63;;;;;;;8.62;52.24;104274.72;5106955;28;20083;-58
2022/03/18 09:20:10;;;;;;;8.07;3.15;;;;;;;8.67;52.13;104275.16;5105980;28;20055;-58
2022/03/18 09:22:38;;;;;;;6.30;3.15;;;;;;;8.71;52.17;104281.13;5100337;28;20055;-58
2022/03/18 09:25:08;;;;;;;8.32;3.70;;;;;;;8.71;52.28;104284.66;5104132;28;20465;-58
2022/03/18 09:27:35;;;;;;;5.57;3.28;;;;;;;8.72;52.06;104277.47;5105826;28;20079;-58
2022/03/18 09:30:08;;;;;;;7.15;3.42;;;;;;;8.74;51.95;104280.88;5101859;28;20071;-56
2022/03/18 09:32:38;;;;;;;7.22;3.10;;;;;;;8.76;52.59;104289.66;5105530;28;20052;-58
2022/03/18 09:35:07;;;;;;;5.55;3.00;;;;;;;8.79;52.10;104289.41;5099962;28;20060;-58
2022/03/18 09:37:35;;;;;;;11.57;3.40;;;;;;;8.82;52.38;104291.81;5104993;28;20086;-58
2022/03/18 09:40:05;;;;;;;7.95;3.50;;;;;;;8.86;52.08;104292.44;5104463;28;20052;-58
2022/03/18 09:43:00;;;;;;;8.43;3.42;;;;;;;8.89;51.92;104290.34;5105720;28;20052;-58
2022/03/18 09:45:31;;;;;;;9.05;3.40;;;;;;;8.91;52.20;104291.06;5103508;28;20102;-58
2022/03/18 09:48:00;;;;;;;11.15;4.15;;;;;;;8.90;51.33;104297.41;5105451;28;20105;-58
2022/03/18 09:50:28;;;;;;;7.07;2.45;;;;;;;8.86;51.89;104289.75;5099480;28;20044;-57
2022/03/18 09:52:56;;;;;;;10.05;2.83;;;;;;;8.90;50.50;104288.50;5104524;28;20078;-59
2022/03/18 09:55:25;;;;;;;5.82;3.17;;;;;;;8.94;51.03;104289.97;5103432;28;20076;-58
2022/03/18 09:57:52;;;;;;;7.82;3.60;;;;;;;8.99;49.91;104298.47;5100613;28;20146;-58
2022/03/18 10:00:22;;;;;;;8.48;3.03;;;;;;;9.03;51.06;104286.53;5101896;28;20047;-58
2022/03/18 10:03:07;;;;;;;9.40;2.13;;;;;;;9.08;50.90;104292.34;5100149;28;20040;-57
2022/03/18 10:05:35;;;;;;;6.88;2.30;;;;;;;9.09;50.15;104294.06;4741726;28;10000333;-57
2022/03/18 10:08:03;;;;;;;9.65;2.83;;;;;;;9.14;50.30;104292.69;5097761;28;20484;-56
2022/03/18 10:10:44;;;;;;;5.20;2.13;;;;;;;9.19;49.89;104304.88;5100829;28;20044;-56
2022/03/18 10:13:12;;;;;;;7.72;2.20;;;;;;;9.22;49.34;104299.25;5098714;28;20098;-57
2022/03/18 10:15:42;;;;;;;5.63;2.10;;;;;;;9.24;49.85;104308.88;5092411;28;20072;-57
2022/03/18 10:18:12;;;;;;;5.85;2.40;;;;;;;9.27;49.46;104303.25;5099638;28;20075;-57
2022/03/18 10:20:42;;;;;;;3.67;2.03;;;;;;;9.30;49.38;104304.84;5098580;28;20072;-57
2022/03/18 10:23:22;;;;;;;5.07;1.90;;;;;;;9.32;50.04;104306.41;5098235;28;20083;-57
2022/03/18 10:25:51;;;;;;;5.70;2.17;;;;;;;9.37;49.99;104314.94;5100145;28;20056;-57
2022/03/18 10:28:36;;;;;;;5.15;2.17;;;;;;;9.39;50.71;104312.97;5090282;28;20071;-58
2022/03/18 10:31:15;;;;;;;4.72;2.20;;;;;;;9.46;50.08;104313.31;5099280;28;20063;-57
2022/03/18 10:39:30;;;;;;;6.80;2.47;;;;;;;9.59;50.62;104295.16;5100420;28;20040;-57
2022/03/18 10:42:00;;;;;;;4.85;2.60;;;;;;;9.62;50.88;104302.97;5102246;28;20048;-57
2022/03/18 10:44:31;;;;;;;8.10;2.05;;;;;;;9.65;50.42;104305.38;5103945;28;20048;-57
2022/03/18 10:47:00;;;;;;;5.53;2.13;;;;;;;9.71;50.43;104307.56;5098833;28;20089;-57
2022/03/18 10:49:28;;;;;;;6.85;2.40;;;;;;;9.73;50.73;104307.41;5099473;28;20044;-57
2022/03/18 10:52:09;;;;;;;7.22;2.10;;;;;;;9.76;50.34;104313.38;5090217;28;20104;-57
2022/03/18 10:54:38;;;;;;;6.85;2.38;;;;;;;9.76;50.30;104307.16;5103296;28;20060;-57
2022/03/18 10:57:05;;;;;;;8.40;2.42;;;;;;;9.81;50.40;104306.75;5103762;28;20044;-57
2022/03/18 10:59:35;;;;;;;5.53;2.10;;;;;;;9.84;50.97;104303.81;5100341;28;20098;-57
2022/03/18 11:02:06;;;;;;;5.55;2.00;;;;;;;9.90;50.92;104304.13;5097854;28;20044;-57
2022/03/18 11:04:34;;;;;;;4.88;2.25;;;;;;;9.91;51.44;104300.47;5097485;28;20060;-57
2022/03/18 11:12:36;;;;;;;7.53;2.55;;;;;;;10.01;50.14;104292.44;5097202;28;20055;-56
2022/03/18 11:15:05;;;;;;;8.05;2.30;;;;;;;10.05;49.97;104285.81;5102149;28;20459;-57
2022/03/18 11:17:35;;;;;;;4.63;2.08;;;;;;;10.09;49.95;104289.94;5101609;28;20059;-56
2022/03/18 11:20:04;;;;;;;6.38;2.45;;;;;;;10.14;50.23;104292.22;5094623;28;20040;-56
2022/03/18 11:22:34;;;;;;;7.72;2.65;;;;;;;10.15;49.92;104289.41;5100408;28;20077;-56
2022/03/18 11:25:03;;;;;;;5.50;2.28;;;;;;;10.21;50.94;104283.53;5096884;28;20068;-56
2022/03/18 11:27:30;;;;;;;5.25;1.90;;;;;;;10.27;50.40;104287.50;5102246;28;20048;-55
2022/03/18 11:30:18;;;;;;;4.32;2.00;;;;;;;10.31;50.09;104283.56;5100552;28;20087;-57
2022/03/18 11:33:21;;;;;;;4.82;2.60;;;;;;;10.34;49.36;104277.91;5102246;28;20079;-58
2022/03/18 11:36:17;;;;;;;7.00;2.00;;;;;;;10.36;50.19;104282.16;5098357;28;20079;-58
2022/03/18 11:38:55;;;;;;;9.73;2.47;;;;;;;10.40;49.48;104275.50;4739752;28;10000497;-57
2022/03/18 11:41:51;;;;;;;6.72;2.63;;;;;;;10.43;49.33;104277.91;5087344;28;20044;-58
2022/03/18 11:44:40;;;;;;;5.63;2.13;;;;;;;10.47;49.78;104277.66;5097836;28;20111;-58
2022/03/18 11:47:40;;;;;;;6.72;2.15;;;;;;;10.51;49.90;104268.31;5090392;28;20524;-59
2022/03/18 11:50:39;;;;;;;4.35;1.90;;;;;;;10.58;50.30;104272.16;5097714;28;20047;-58
2022/03/18 11:53:08;;;;;;;5.82;2.08;;;;;;;10.62;50.22;104274.44;5097659;28;20135;-58
2022/03/18 11:55:35;;;;;;;7.57;2.38;;;;;;;10.66;50.78;104273.16;5098855;28;20110;-58
2022/03/18 11:58:28;;;;;;;7.85;2.13;;;;;;;10.69;51.48;104270.19;5097901;28;20119;-58
2022/03/18 12:00:56;;;;;;;9.02;2.80;;;;;;;10.74;51.13;104269.78;5087275;28;20174;-58
2022/03/18 12:03:35;;;;;;;5.60;1.92;;;;;;;10.80;51.71;104274.59;5095953;28;20059;-58
2022/03/18 12:06:05;;;;;;;5.68;2.28;;;;;;;10.84;50.09;104267.94;5097567;28;20067;-59
2022/03/18 12:08:58;;;;;;;9.07;2.55;;;;;;;10.88;49.73;104268.53;5097336;28;20058;-60
2022/03/18 12:11:32;;;;;;;5.40;2.60;;;;;;;10.93;49.44;104267.13;5099862;28;20121;-58